Terminal Aerodrome Forecast
Issued by NWS

Home | Current Version | Previous Version | Text Only | Print | Product List | Glossary On
Versions: 1 2 3 4 5 6 7 8 9 10 11 12 13 14 15 16 17 18
000
FTUS43 KLSX 240527
TAFSUS
TAF
KSUS 240527Z 2406/2506 VRB03KT P6SM OVC020
     FM241000 00000KT P6SM OVC015
     FM241500 13010KT P6SM BKN025
     FM241800 14012KT P6SM BKN035
     FM242000 13013G21KT P6SM SCT130
     FM250300 17009KT P6SM SCT250=

USA.gov is the U.S. government's official web portal to all federal, state and local government web resources and services.